Time;durP1;ratioP1;P1;durP2;ratioP2;P2;SDS_P1;SDS_P2;PMS_P1;PMS_P2;Temp;Humidity;BMP_temperature;BMP_pressure;BME280_temperature;BME280_humidity;BME280_pressure;Samples;Min_cycle;Max_cycle;Signal;HPM_P1;HPM_P2
2023/08/25 00:00:05;;;;;;;2.43;2.23;;;;;;;23.61;75.56;98390.84;5055100;28;41738;-81
2023/08/25 00:02:39;;;;;;;2.40;2.20;;;;;;;23.57;75.49;98389.53;5054782;28;42837;-82
2023/08/25 00:05:07;;;;;;;3.10;2.50;;;;;;;23.50;75.36;98383.16;5052813;28;42704;-81
2023/08/25 00:07:37;;;;;;;1.90;1.80;;;;;;;23.49;75.28;98386.91;5055271;28;40643;-81
2023/08/25 00:10:06;;;;;;;2.30;2.10;;;;;;;23.45;75.04;98391.84;5054717;28;40762;-81
2023/08/25 00:12:33;;;;;;;1.73;1.63;;;;;;;23.38;75.12;98390.06;5072136;28;44083;-81
2023/08/25 00:15:01;;;;;;;2.73;1.90;;;;;;;23.14;74.99;98351.53;5071558;28;41268;-81
2023/08/25 00:17:30;;;;;;;1.77;1.67;;;;;;;23.34;75.15;98388.78;5037180;28;39195;-81
2023/08/25 00:19:57;;;;;;;2.97;2.00;;;;;;;23.23;75.20;98384.72;5036572;28;41514;-82
2023/08/25 00:22:25;;;;;;;3.03;2.00;;;;;;;23.25;75.48;98386.19;5053652;28;42079;-81
2023/08/25 00:24:55;;;;;;;2.73;2.03;;;;;;;23.12;75.22;98380.59;5053545;28;43257;-81
2023/08/25 00:27:22;;;;;;;2.17;2.03;;;;;;;23.18;74.81;98390.66;5053388;28;40829;-81
2023/08/25 00:29:52;;;;;;;3.83;2.03;;;;;;;23.06;74.88;98369.72;5036708;28;41384;-82
2023/08/25 00:32:20;;;;;;;2.73;2.00;;;;;;;23.11;74.69;98378.94;5069866;28;43744;-81
2023/08/25 00:34:49;;;;;;;2.57;1.40;;;;;;;23.09;74.41;98381.00;5071511;28;43362;-82
2023/08/25 00:37:16;;;;;;;1.57;1.47;;;;;;;22.94;74.09;98366.63;5072701;28;40181;-81
2023/08/25 00:39:46;;;;;;;1.60;1.50;;;;;;;22.95;74.21;98365.63;5045069;28;41677;-81
2023/08/25 00:42:14;;;;;;;1.43;1.33;;;;;;;22.90;74.40;98371.56;5041926;28;43148;-81
2023/08/25 00:44:41;;;;;;;1.97;1.70;;;;;;;22.91;74.17;98380.50;5053981;28;42161;-81
2023/08/25 00:47:09;;;;;;;1.87;1.50;;;;;;;22.86;73.78;98380.25;5053851;28;39012;-81
2023/08/25 00:49:37;;;;;;;1.50;1.40;;;;;;;22.73;74.06;98369.22;5036589;28;40414;-81
2023/08/25 00:52:07;;;;;;;3.07;1.60;;;;;;;22.76;73.90;98375.09;5036705;28;41356;-81
2023/08/25 00:54:35;;;;;;;1.90;1.80;;;;;;;22.64;73.87;98370.28;5037865;28;41164;-82
2023/08/25 00:57:04;;;;;;;1.90;1.80;;;;;;;22.70;74.14;98372.28;5038379;28;39918;-80
2023/08/25 00:59:34;;;;;;;2.40;1.83;;;;;;;22.65;74.74;98371.97;5068414;28;41831;-81
2023/08/25 01:02:02;;;;;;;2.90;2.33;;;;;;;22.55;74.87;98373.09;5037849;28;41793;-81
2023/08/25 01:04:31;;;;;;;2.73;2.40;;;;;;;22.47;75.15;98367.78;5054620;28;40934;-81
2023/08/25 01:06:58;;;;;;;3.33;3.03;;;;;;;22.42;75.57;98372.88;5037989;28;39172;-81
2023/08/25 01:09:28;;;;;;;2.50;2.30;;;;;;;22.50;76.36;98391.69;5037530;28;40743;-81
2023/08/25 01:12:01;;;;;;;2.63;2.43;;;;;;;22.49;76.49;98405.38;5035865;28;41345;-81
2023/08/25 01:14:37;;;;;;;3.43;2.40;;;;;;;22.46;76.27;98400.34;5068100;28;43227;-81
2023/08/25 01:17:14;;;;;;;2.80;2.60;;;;;;;22.35;76.52;98382.72;5036302;28;41398;-81
2023/08/25 01:19:52;;;;;;;3.83;2.63;;;;;;;22.44;78.39;98397.81;5050339;28;41960;-82
2023/08/25 01:22:26;;;;;;;2.90;2.70;;;;;;;22.39;77.63;98402.06;5050240;28;42757;-81
2023/08/25 01:25:04;;;;;;;2.43;2.23;;;;;;;22.38;77.13;98408.47;5052818;28;41225;-81
2023/08/25 01:27:34;;;;;;;2.90;2.47;;;;;;;22.31;76.95;98400.28;5036485;28;38875;-81
2023/08/25 01:30:02;;;;;;;2.87;2.27;;;;;;;22.36;76.41;98414.09;5036438;28;41785;-81
2023/08/25 01:32:29;;;;;;;2.63;2.43;;;;;;;22.33;76.24;98411.75;5052971;28;41740;-80
2023/08/25 01:34:58;;;;;;;2.03;1.93;;;;;;;22.23;75.97;98392.28;5036361;28;41131;-81
2023/08/25 01:37:32;;;;;;;2.43;2.20;;;;;;;22.29;76.30;98404.19;5036664;28;39829;-81
2023/08/25 01:40:05;;;;;;;2.13;1.80;;;;;;;22.16;75.90;98404.78;5036101;28;40311;-81
2023/08/25 01:42:34;;;;;;;2.20;2.00;;;;;;;22.11;75.67;98396.41;5052972;28;41630;-80
2023/08/25 01:45:06;;;;;;;2.27;2.07;;;;;;;22.20;76.07;98411.50;5054724;28;43346;-80
2023/08/25 01:47:35;;;;;;;2.50;2.30;;;;;;;22.17;76.22;98407.31;5057263;28;39488;-81
2023/08/25 01:50:08;;;;;;;3.27;2.97;;;;;;;22.16;78.00;98404.78;5056551;28;40864;-81
2023/08/25 01:52:35;;;;;;;2.73;2.53;;;;;;;22.15;78.46;98403.09;5039969;28;41768;-80
2023/08/25 01:55:03;;;;;;;3.53;2.57;;;;;;;22.15;78.36;98397.72;5040287;28;42429;-81
2023/08/25 01:57:31;;;;;;;2.90;2.23;;;;;;;21.77;78.84;98327.50;5075767;28;40031;-81
2023/08/25 02:00:00;;;;;;;4.90;2.60;;;;;;;22.15;79.79;98387.75;5040594;28;40667;-81
2023/08/25 02:02:28;;;;;;;3.93;2.50;;;;;;;22.17;79.03;98407.31;5057363;28;42361;-81
2023/08/25 02:04:56;;;;;;;3.10;2.90;;;;;;;22.14;78.64;98391.47;5040106;28;41117;-81
2023/08/25 02:07:24;;;;;;;2.13;1.93;;;;;;;22.20;78.11;98401.56;5040394;28;41655;-81
2023/08/25 02:09:54;;;;;;;2.07;1.77;;;;;;;22.20;78.04;98387.22;5056995;28;41693;-81
2023/08/25 02:12:23;;;;;;;1.70;1.60;;;;;;;22.11;77.78;98380.22;5040715;28;42701;-81
2023/08/25 02:14:51;;;;;;;2.83;1.90;;;;;;;22.23;77.75;98384.19;5056705;28;41654;-81
2023/08/25 02:17:20;;;;;;;3.00;2.33;;;;;;;22.22;80.13;98369.00;5073938;28;39993;-81
2023/08/25 02:19:47;;;;;;;2.63;2.43;;;;;;;22.19;79.80;98361.28;5040257;28;42062;-81
2023/08/25 02:22:15;;;;;;;3.00;2.73;;;;;;;22.20;81.55;98342.22;5040304;28;41791;-82
2023/08/25 02:24:44;;;;;;;5.23;2.50;;;;;;;22.23;82.27;98345.56;5038427;28;42158;-81
2023/08/25 02:27:12;;;;;;;3.00;2.70;;;;;;;22.11;82.51;98331.69;5039139;28;40308;-81
2023/08/25 02:29:40;;;;;;;2.87;2.67;;;;;;;22.21;81.52;98340.34;5039104;28;41757;-82
2023/08/25 02:32:07;;;;;;;2.30;2.10;;;;;;;22.24;81.52;98342.69;5073841;28;43729;-81
2023/08/25 02:34:36;;;;;;;2.20;2.00;;;;;;;22.25;80.83;98349.78;5056052;28;42479;-81
2023/08/25 02:37:04;;;;;;;2.30;2.10;;;;;;;22.19;80.25;98339.69;5055709;28;38896;-81
2023/08/25 02:39:34;;;;;;;2.07;1.87;;;;;;;22.11;79.93;98332.53;5072706;28;41541;-82
2023/08/25 02:42:02;;;;;;;2.00;1.80;;;;;;;22.16;79.65;98348.97;5038702;28;41464;-81
2023/08/25 02:44:31;;;;;;;2.13;1.93;;;;;;;22.11;79.83;98327.13;5055662;28;41257;-78
2023/08/25 02:47:00;;;;;;;2.40;2.20;;;;;;;22.05;79.91;98317.06;5043740;28;39196;-84
2023/08/25 02:49:29;;;;;;;2.87;2.20;;;;;;;22.01;79.52;98320.28;5076058;28;41814;-87
2023/08/25 02:51:58;;;;;;;2.13;2.00;;;;;;;21.97;79.13;98318.97;5073996;28;41791;-78
2023/08/25 02:54:25;;;;;;;2.10;1.80;;;;;;;21.92;78.97;98321.34;5075254;28;41300;-78
2023/08/25 02:56:53;;;;;;;2.40;2.20;;;;;;;21.67;79.54;98299.97;5055405;28;40124;-78
2023/08/25 02:59:20;;;;;;;2.20;2.00;;;;;;;21.83;79.22;98318.72;5058805;28;40649;-78
2023/08/25 03:01:48;;;;;;;1.73;1.63;;;;;;;21.81;79.39;98326.16;5058223;28;43161;-78
2023/08/25 03:04:15;;;;;;;3.33;2.00;;;;;;;21.78;79.25;98329.19;5058517;28;42168;-78
2023/08/25 03:06:44;;;;;;;2.17;1.83;;;;;;;21.74;79.21;98341.38;5058474;28;38938;-78
2023/08/25 03:09:13;;;;;;;2.13;1.90;;;;;;;21.60;78.88;98317.88;5058290;28;42160;-78
2023/08/25 03:11:40;;;;;;;2.07;1.87;;;;;;;21.67;78.80;98335.00;5074604;28;42802;-78
2023/08/25 03:14:09;;;;;;;2.43;1.97;;;;;;;21.63;79.62;98327.47;5058314;28;42239;-77
2023/08/25 03:16:37;;;;;;;3.60;2.20;;;;;;;21.49;79.82;98310.22;5057758;28;39040;-77
2023/08/25 03:19:04;;;;;;;2.27;2.07;;;;;;;21.58;79.25;98336.09;5075139;28;41833;-78
2023/08/25 03:21:33;;;;;;;2.23;2.00;;;;;;;21.54;79.26;98337.44;5057856;28;41738;-78
2023/08/25 03:24:01;;;;;;;2.40;2.20;;;;;;;21.51;79.19;98335.13;5075040;28;42407;-78
2023/08/25 03:26:30;;;;;;;2.17;1.97;;;;;;;21.49;79.37;98331.78;5057849;28;38783;-77
2023/08/25 03:28:57;;;;;;;1.70;1.60;;;;;;;21.46;79.29;98326.72;5057116;28;41735;-78
2023/08/25 03:31:25;;;;;;;1.80;1.70;;;;;;;21.42;79.79;98325.41;5072938;28;43822;-78
2023/08/25 03:33:53;;;;;;;1.77;1.67;;;;;;;21.42;79.91;98328.94;5057081;28;42067;-78
2023/08/25 03:36:21;;;;;;;1.97;1.87;;;;;;;21.41;80.34;98323.72;5073436;28;40172;-78
2023/08/25 03:38:49;;;;;;;1.93;1.73;;;;;;;21.40;80.49;98322.03;5057339;28;41820;-82
2023/08/25 03:41:17;;;;;;;2.40;1.90;;;;;;;21.37;80.69;98320.56;5074428;28;42877;-84
2023/08/25 03:43:48;;;;;;;3.10;2.40;;;;;;;21.28;80.87;98301.91;5058265;28;41202;-90
2023/08/25 03:46:16;;;;;;;1.77;1.67;;;;;;;21.22;80.94;98305.31;5057160;28;39820;-88
2023/08/25 03:48:44;;;;;;;3.70;1.97;;;;;;;21.19;80.93;98298.44;5058158;28;41122;-86
2023/08/25 03:51:11;;;;;;;1.93;1.70;;;;;;;21.23;80.59;98297.06;5057801;28;42514;-87
2023/08/25 03:53:39;;;;;;;1.67;1.57;;;;;;;21.28;80.70;98297.34;5058721;28;41722;-80
2023/08/25 03:56:08;;;;;;;1.77;1.60;;;;;;;21.20;80.82;98299.28;5075095;28;40782;-84
2023/08/25 03:58:35;;;;;;;1.47;1.37;;;;;;;21.17;80.44;98295.88;5093959;28;41758;-85
2023/08/25 04:01:04;;;;;;;2.87;1.80;;;;;;;21.23;80.69;98293.53;5058835;28;41752;-81
2023/08/25 04:03:32;;;;;;;2.17;1.77;;;;;;;21.21;80.76;98296.41;5098765;28;43213;-82
2023/08/25 04:05:59;;;;;;;1.73;1.60;;;;;;;21.13;80.70;98278.41;5104648;28;40325;-79
2023/08/25 04:08:27;;;;;;;2.27;1.80;;;;;;;21.06;80.87;98273.88;5090660;28;40662;-84
2023/08/25 04:10:54;;;;;;;1.40;1.30;;;;;;;21.17;80.46;98290.50;5089731;28;42509;-81
2023/08/25 04:13:22;;;;;;;2.27;1.77;;;;;;;21.06;80.31;98280.13;5082052;28;41498;-83
2023/08/25 04:15:56;;;;;;;2.13;1.60;;;;;;;21.14;80.74;98285.44;5095544;28;39257;-82
2023/08/25 04:18:26;;;;;;;3.23;1.83;;;;;;;21.15;80.76;98280.91;5076017;28;41812;-82
2023/08/25 04:20:54;;;;;;;2.57;2.00;;;;;;;21.14;80.93;98274.69;5092211;28;42811;-83
2023/08/25 04:23:24;;;;;;;2.03;1.40;;;;;;;20.94;81.09;98254.59;5090308;28;42003;-82
2023/08/25 04:25:52;;;;;;;1.90;1.80;;;;;;;21.02;81.16;98269.88;5090089;28;39267;-84
2023/08/25 04:28:21;;;;;;;1.40;1.30;;;;;;;21.12;81.30;98286.66;5073922;28;41828;-84
2023/08/25 04:30:52;;;;;;;1.93;1.73;;;;;;;21.03;81.27;98272.38;5090533;28;43588;-84
2023/08/25 04:33:29;;;;;;;1.70;1.60;;;;;;;21.11;81.69;98275.06;5073826;28;41343;-85
2023/08/25 04:35:56;;;;;;;3.50;1.67;;;;;;;21.06;81.52;98266.66;5073364;28;40244;-86
2023/08/25 04:38:24;;;;;;;1.80;1.70;;;;;;;21.01;81.98;98263.66;5073816;28;40865;-86
2023/08/25 04:40:53;;;;;;;2.13;1.67;;;;;;;21.14;82.71;98279.25;5090229;28;42952;-83
2023/08/25 04:43:22;;;;;;;2.77;1.90;;;;;;;21.16;82.10;98287.97;5090907;28;42500;-84
2023/08/25 04:45:50;;;;;;;2.57;1.87;;;;;;;21.13;82.27;98275.72;5089727;28;40157;-78
2023/08/25 04:48:17;;;;;;;1.90;1.70;;;;;;;21.19;81.88;98274.19;5089852;28;42407;-79
2023/08/25 04:50:46;;;;;;;2.50;1.70;;;;;;;21.21;82.45;98274.00;5090673;28;42688;-78
2023/08/25 04:53:13;;;;;;;1.53;1.40;;;;;;;21.14;81.92;98263.91;5090132;28;42217;-78
2023/08/25 04:55:41;;;;;;;1.50;1.40;;;;;;;21.23;81.55;98275.53;5073532;28;38902;-79
2023/08/25 04:58:09;;;;;;;1.40;1.30;;;;;;;21.30;81.27;98294.50;5090490;28;41674;-79
2023/08/25 05:00:36;;;;;;;1.67;1.50;;;;;;;21.30;81.05;98292.63;5090681;28;42567;-78
2023/08/25 05:03:05;;;;;;;3.60;1.40;;;;;;;21.35;80.65;98294.81;5090329;28;41226;-78
2023/08/25 05:05:33;;;;;;;2.83;1.37;;;;;;;21.39;80.54;98298.81;5073485;28;40236;-79
2023/08/25 05:08:02;;;;;;;1.83;1.60;;;;;;;21.45;80.80;98298.09;5073368;28;41694;-78
2023/08/25 05:10:30;;;;;;;1.63;1.53;;;;;;;21.50;80.37;98295.72;5090286;28;42663;-77
2023/08/25 05:12:57;;;;;;;1.53;1.40;;;;;;;21.56;80.37;98291.47;5090373;28;42214;-78
2023/08/25 05:15:25;;;;;;;1.60;1.50;;;;;;;21.62;79.96;98305.06;5074342;28;39237;-79
2023/08/25 05:17:53;;;;;;;2.03;1.60;;;;;;;21.60;79.80;98282.84;5090790;28;41683;-87
2023/08/25 05:20:20;;;;;;;1.40;1.30;;;;;;;21.77;79.64;98302.41;5093519;28;42728;-82
2023/08/25 05:22:50;;;;;;;1.47;1.37;;;;;;;21.73;79.40;98275.00;5093402;28;43251;-81
2023/08/25 05:25:21;;;;;;;1.27;1.17;;;;;;;21.95;78.88;98294.88;5075443;28;40201;-76
2023/08/25 05:27:48;;;;;;;2.20;1.40;;;;;;;22.12;78.89;98306.41;5093227;28;42667;-78
2023/08/25 05:30:16;;;;;;;3.07;1.63;;;;;;;22.29;78.55;98307.06;5093447;28;42560;-84
2023/08/25 05:32:45;;;;;;;1.73;1.63;;;;;;;22.53;77.82;98304.13;5092752;28;43246;-78
2023/08/25 05:35:12;;;;;;;1.60;1.50;;;;;;;22.83;77.26;98299.59;5094517;28;39935;-79
2023/08/25 05:37:41;;;;;;;2.07;1.60;;;;;;;23.17;76.16;98307.94;5076076;28;41666;-77
2023/08/25 05:40:12;;;;;;;1.53;1.43;;;;;;;23.50;75.30;98307.47;5075652;28;43075;-80
2023/08/25 05:42:43;;;;;;;2.00;1.80;;;;;;;23.86;74.28;98308.28;5076364;28;41082;-84
2023/08/25 05:45:10;;;;;;;2.47;1.70;;;;;;;24.07;73.33;98303.94;5076152;28;38521;-78
2023/08/25 05:47:38;;;;;;;1.60;1.50;;;;;;;24.33;72.38;98318.56;5092377;28;42077;-79
2023/08/25 05:50:07;;;;;;;1.67;1.30;;;;;;;24.47;72.07;98322.19;5092593;28;42791;-79
2023/08/25 05:52:34;;;;;;;1.47;1.27;;;;;;;24.48;71.97;98315.72;5075502;28;42557;-76
2023/08/25 05:55:02;;;;;;;1.80;1.40;;;;;;;24.53;71.57;98326.81;5076902;28;38793;-80
2023/08/25 05:57:29;;;;;;;2.27;1.40;;;;;;;24.55;71.17;98335.56;5095085;28;41884;-80
2023/08/25 05:59:59;;;;;;;1.67;1.57;;;;;;;24.59;71.15;98336.88;5093859;28;42633;-82
2023/08/25 06:02:26;;;;;;;1.63;1.53;;;;;;;24.66;70.94;98345.00;5076854;28;41279;-79
2023/08/25 06:04:54;;;;;;;1.80;1.50;;;;;;;24.59;70.45;98323.31;5094531;28;40164;-80
2023/08/25 06:07:21;;;;;;;2.07;1.67;;;;;;;24.76;70.58;98336.53;5093527;28;41793;-80
2023/08/25 06:09:49;;;;;;;1.70;1.50;;;;;;;24.81;70.50;98353.03;5093478;28;41959;-80
2023/08/25 06:12:16;;;;;;;2.13;1.60;;;;;;;24.86;69.72;98358.69;5076418;28;41097;-82
2023/08/25 06:14:44;;;;;;;2.13;1.87;;;;;;;24.90;69.94;98358.09;5094065;28;39903;-81
2023/08/25 06:17:13;;;;;;;2.63;1.50;;;;;;;24.90;69.55;98359.97;5091567;28;40407;-74
2023/08/25 06:19:43;;;;;;;2.97;2.10;;;;;;;24.81;69.53;98353.03;5091037;28;42923;-76
2023/08/25 06:22:11;;;;;;;2.73;1.60;;;;;;;24.84;69.55;98361.59;5092564;28;42271;-75
2023/08/25 06:24:39;;;;;;;1.93;1.67;;;;;;;24.77;69.42;98365.28;5093071;28;40631;-76
2023/08/25 06:27:06;;;;;;;2.50;1.53;;;;;;;24.67;69.93;98339.41;5074171;28;42249;-75
2023/08/25 06:29:34;;;;;;;1.67;1.57;;;;;;;24.63;69.97;98335.41;5091449;28;44277;-75
2023/08/25 06:32:01;;;;;;;2.63;1.40;;;;;;;24.60;69.85;98321.44;5091216;28;42131;-80
2023/08/25 06:34:30;;;;;;;1.50;1.40;;;;;;;24.52;69.72;98317.00;5092126;28;38938;-83
2023/08/25 06:36:58;;;;;;;1.37;1.17;;;;;;;24.47;69.37;98321.34;5074094;28;40698;-84
2023/08/25 06:39:26;;;;;;;2.00;1.50;;;;;;;24.38;69.45;98315.22;5092526;28;41552;-80
2023/08/25 06:41:53;;;;;;;1.50;1.40;;;;;;;24.44;70.15;98344.25;5074423;28;41158;-79
2023/08/25 06:44:22;;;;;;;1.80;1.63;;;;;;;24.37;70.18;98359.56;5075031;28;39853;-82
2023/08/25 06:46:49;;;;;;;1.93;1.43;;;;;;;24.28;70.49;98377.00;5091661;28;41959;-81
2023/08/25 06:49:17;;;;;;;1.47;1.37;;;;;;;24.21;70.62;98376.91;5093245;28;42897;-80
2023/08/25 06:51:46;;;;;;;1.40;1.30;;;;;;;24.18;70.69;98373.75;5074569;28;41233;-81
2023/08/25 06:54:13;;;;;;;1.67;1.43;;;;;;;24.10;70.84;98390.13;5092902;28;40033;-81
2023/08/25 06:56:41;;;;;;;1.83;1.67;;;;;;;23.91;71.16;98387.00;5093469;28;42328;-78
2023/08/25 06:59:08;;;;;;;3.00;1.40;;;;;;;23.89;71.66;98402.56;5075840;28;42643;-76
2023/08/25 07:01:36;;;;;;;1.40;1.30;;;;;;;23.75;71.82;98406.16;5091333;28;41329;-75
2023/08/25 07:04:04;;;;;;;1.77;1.50;;;;;;;23.62;72.58;98414.94;5091242;28;39437;-74
2023/08/25 07:06:32;;;;;;;2.63;1.50;;;;;;;23.38;73.40;98396.31;5091735;28;42185;-84
2023/08/25 07:09:01;;;;;;;1.60;1.50;;;;;;;23.31;74.20;98399.97;5076354;28;43086;-76
2023/08/25 07:11:29;;;;;;;1.50;1.40;;;;;;;23.14;74.82;98383.09;5091807;28;41238;-83
2023/08/25 07:13:56;;;;;;;1.70;1.60;;;;;;;23.08;75.12;98373.91;5093330;28;40009;-81
2023/08/25 07:16:24;;;;;;;2.47;1.90;;;;;;;23.00;75.73;98371.28;5092471;28;41575;-86
2023/08/25 07:18:52;;;;;;;1.60;1.50;;;;;;;22.95;76.19;98362.91;5092714;28;43070;-80
2023/08/25 07:21:19;;;;;;;2.17;1.97;;;;;;;22.81;77.19;98355.66;5091846;28;42215;-81
2023/08/25 07:23:47;;;;;;;1.87;1.77;;;;;;;22.81;77.59;98375.38;5091395;28;40120;-79
2023/08/25 07:26:16;;;;;;;2.27;2.00;;;;;;;22.58;78.75;98367.31;5074175;28;40623;-89
2023/08/25 07:28:44;;;;;;;2.83;1.57;;;;;;;22.67;79.70;98394.22;5099289;28;44623;-85
2023/08/25 07:31:11;;;;;;;2.53;2.20;;;;;;;22.67;79.85;98392.38;5109076;28;42719;-83
2023/08/25 07:33:39;;;;;;;3.20;2.40;;;;;;;22.63;81.53;98379.41;5098853;28;41580;-82
2023/08/25 07:36:06;;;;;;;3.37;2.20;;;;;;;22.60;82.91;98371.72;5074235;28;41662;-85
2023/08/25 07:38:34;;;;;;;3.00;1.87;;;;;;;22.58;82.31;98366.50;5092691;28;42723;-81
2023/08/25 07:41:02;;;;;;;3.77;2.07;;;;;;;22.62;82.56;98372.38;5091659;28;42337;-83
2023/08/25 07:43:31;;;;;;;2.70;2.00;;;;;;;22.25;83.03;98305.78;5107908;28;40781;-83
2023/08/25 07:45:58;;;;;;;3.13;2.40;;;;;;;22.55;83.16;98362.28;5092123;28;41511;-82
2023/08/25 07:48:26;;;;;;;2.77;2.17;;;;;;;22.54;83.26;98373.25;5091186;28;42835;-82
2023/08/25 07:50:53;;;;;;;3.07;2.30;;;;;;;22.49;83.98;98367.59;5091959;28;42414;-84
2023/08/25 07:53:21;;;;;;;2.57;1.90;;;;;;;22.47;84.15;98364.25;5092056;28;40113;-81
2023/08/25 07:55:48;;;;;;;2.53;2.33;;;;;;;22.37;84.63;98353.72;5092492;28;41706;-84
2023/08/25 07:58:16;;;;;;;3.03;2.47;;;;;;;22.43;84.99;98363.75;5075218;28;41504;-79
2023/08/25 08:00:45;;;;;;;4.67;1.97;;;;;;;22.34;85.04;98348.69;5092226;28;42609;-86
2023/08/25 08:03:13;;;;;;;2.83;2.30;;;;;;;22.30;86.57;98346.50;5092314;28;38907;-87
2023/08/25 08:05:40;;;;;;;4.27;2.20;;;;;;;22.28;86.71;98359.34;5075166;28;40718;-87
2023/08/25 08:08:09;;;;;;;3.97;2.37;;;;;;;22.25;87.47;98363.25;5092275;28;43563;-81
2023/08/25 08:10:37;;;;;;;3.30;2.00;;;;;;;22.02;88.20;98344.38;5075163;28;41084;-85
2023/08/25 08:13:05;;;;;;;4.37;2.40;;;;;;;22.02;88.20;98348.94;5092076;28;39004;-83
2023/08/25 08:15:32;;;;;;;2.20;2.00;;;;;;;21.77;89.54;98316.75;5092112;28;41014;-83
2023/08/25 08:18:01;;;;;;;3.67;2.03;;;;;;;21.75;90.72;98332.28;5091439;28;42955;-88
2023/08/25 08:20:29;;;;;;;2.30;2.10;;;;;;;21.69;90.89;98349.16;5067866;28;42370;-76
2023/08/25 08:22:57;;;;;;;4.33;2.43;;;;;;;21.66;92.10;98398.00;5055410;28;39144;-79
2023/08/25 08:25:24;;;;;;;3.03;1.97;;;;;;;21.68;92.12;98455.28;5072593;28;42097;-78
2023/08/25 08:27:52;;;;;;;3.30;2.07;;;;;;;21.69;92.04;98427.31;5072788;28;42807;-77
2023/08/25 08:30:19;;;;;;;3.77;2.40;;;;;;;21.69;92.56;98392.28;5072376;28;41149;-76
2023/08/25 08:32:47;;;;;;;3.93;2.43;;;;;;;21.71;93.08;98379.47;5072289;28;38854;-77
2023/08/25 08:35:17;;;;;;;2.87;2.03;;;;;;;21.67;92.59;98356.56;5072775;28;41012;-88
2023/08/25 08:37:45;;;;;;;4.00;1.83;;;;;;;21.77;92.12;98357.16;5056816;28;42080;-87
2023/08/25 08:40:14;;;;;;;2.73;2.03;;;;;;;21.72;92.25;98356.88;5091157;28;42096;-89
2023/08/25 08:42:42;;;;;;;2.83;2.00;;;;;;;21.91;92.34;98354.72;5056466;28;41398;-84
2023/08/25 08:45:11;;;;;;;2.93;2.10;;;;;;;21.94;92.06;98359.75;5090875;28;42697;-77
2023/08/25 08:47:39;;;;;;;3.17;2.20;;;;;;;21.70;91.16;98312.25;5055553;28;42760;-84
2023/08/25 08:50:08;;;;;;;3.30;2.10;;;;;;;22.11;90.41;98369.44;5091003;28;43378;-77
2023/08/25 08:52:37;;;;;;;5.23;2.40;;;;;;;22.23;90.66;98407.63;5072403;28;39093;-79
2023/08/25 08:55:06;;;;;;;2.80;1.73;;;;;;;22.28;90.37;98407.91;5091848;28;42104;-84
2023/08/25 08:57:33;;;;;;;2.70;2.20;;;;;;;22.51;90.10;98425.75;5057361;28;43001;-82
2023/08/25 09:00:03;;;;;;;3.23;2.10;;;;;;;22.61;90.05;98419.28;5057442;28;42604;-84
2023/08/25 09:02:32;;;;;;;4.07;2.03;;;;;;;22.82;88.97;98422.13;5057889;28;39266;-83
2023/08/25 09:05:00;;;;;;;1.90;1.60;;;;;;;22.92;88.42;98384.88;5057270;28;41623;-84
2023/08/25 09:07:32;;;;;;;3.33;1.80;;;;;;;22.98;87.58;98350.91;5073635;28;43064;-80
2023/08/25 09:10:02;;;;;;;3.10;1.83;;;;;;;23.38;86.15;98381.97;5088970;28;42498;-81
2023/08/25 09:12:30;;;;;;;2.83;1.80;;;;;;;23.64;84.83;98412.91;5091679;28;39940;-83
2023/08/25 09:14:57;;;;;;;2.93;1.80;;;;;;;23.92;84.34;98407.63;5091053;28;41020;-82
2023/08/25 09:17:25;;;;;;;2.13;1.93;;;;;;;24.19;83.16;98400.63;5089416;28;43497;-82
2023/08/25 09:19:53;;;;;;;1.90;1.70;;;;;;;24.56;82.39;98412.22;5071404;28;40856;-80
2023/08/25 09:22:20;;;;;;;4.03;2.07;;;;;;;24.80;81.72;98419.06;5071917;28;39124;-83
2023/08/25 09:24:47;;;;;;;2.80;2.07;;;;;;;24.88;79.98;98410.78;5089728;28;42527;-83
2023/08/25 09:27:24;;;;;;;2.40;1.73;;;;;;;25.04;79.33;98415.94;5106255;28;43590;-85
2023/08/25 09:29:59;;;;;;;2.10;1.90;;;;;;;25.08;79.15;98422.66;5072349;28;41263;-80
2023/08/25 09:32:28;;;;;;;4.90;1.97;;;;;;;24.91;78.39;98383.31;5087301;28;40854;-81
2023/08/25 09:34:56;;;;;;;3.53;1.80;;;;;;;25.13;78.57;98417.44;5089613;28;40933;-84
2023/08/25 09:37:40;;;;;;;2.90;1.57;;;;;;;25.23;77.23;98409.78;5089718;28;42782;-88
2023/08/25 09:40:11;;;;;;;2.27;1.53;;;;;;;25.23;74.29;98404.38;5089499;28;41738;-84
2023/08/25 09:42:40;;;;;;;1.50;1.40;;;;;;;25.35;75.16;98419.03;5072186;28;39673;-80
2023/08/25 09:45:09;;;;;;;2.67;1.67;;;;;;;25.45;75.30;98417.84;5088912;28;42060;-80
2023/08/25 09:47:37;;;;;;;2.70;1.20;;;;;;;25.24;74.22;98381.66;5089838;28;42818;-87
2023/08/25 09:50:05;;;;;;;2.20;1.40;;;;;;;25.42;73.57;98398.22;5090747;28;42553;-85
2023/08/25 09:52:40;;;;;;;1.57;1.47;;;;;;;25.52;72.84;98397.00;5090484;28;40523;-85
2023/08/25 09:55:10;;;;;;;1.50;1.30;;;;;;;25.49;71.78;98389.28;5088823;28;41849;-82
2023/08/25 09:57:37;;;;;;;1.30;1.20;;;;;;;25.53;71.72;98390.56;5073635;28;41439;-81
2023/08/25 10:00:09;;;;;;;1.43;1.13;;;;;;;25.53;70.96;98382.41;5073667;28;41348;-87
2023/08/25 10:02:39;;;;;;;1.60;1.10;;;;;;;25.50;70.43;98371.97;5089648;28;39755;-80
2023/08/25 10:05:10;;;;;;;1.37;1.27;;;;;;;25.62;71.29;98379.34;5091661;28;41882;-86
2023/08/25 10:07:38;;;;;;;1.80;1.40;;;;;;;25.64;70.39;98373.72;5076241;28;41454;-85
2023/08/25 10:10:07;;;;;;;2.93;1.40;;;;;;;25.75;69.64;98365.00;5093723;28;42366;-80
2023/08/25 10:12:37;;;;;;;2.03;1.60;;;;;;;25.88;69.83;98351.47;5092979;28;39271;-81
2023/08/25 10:15:09;;;;;;;1.57;1.23;;;;;;;26.26;69.33;98354.44;5093466;28;40691;-85
2023/08/25 10:17:37;;;;;;;2.90;1.40;;;;;;;26.68;67.16;98345.06;5076285;28;41858;-87
2023/08/25 10:20:09;;;;;;;1.80;1.30;;;;;;;27.17;65.95;98333.69;5076619;28;42356;-87
2023/08/25 10:22:39;;;;;;;2.30;1.27;;;;;;;27.72;62.98;98349.56;5075219;28;39781;-86
2023/08/25 10:25:10;;;;;;;1.40;1.30;;;;;;;28.19;63.61;98332.75;5092853;28;41608;-85
2023/08/25 10:27:38;;;;;;;1.33;1.20;;;;;;;28.59;61.52;98300.56;5076811;28;41352;-86
2023/08/25 10:30:09;;;;;;;2.73;1.23;;;;;;;29.33;61.06;98333.34;5076318;28;41501;-87
2023/08/25 10:32:48;;;;;;;2.23;1.50;;;;;;;29.80;57.05;98337.13;5091801;28;40012;-88
2023/08/25 10:35:16;;;;;;;1.73;1.53;;;;;;;30.46;56.54;98352.56;5076906;28;40712;-87
2023/08/25 10:37:44;;;;;;;2.37;1.27;;;;;;;31.46;53.01;98383.38;5076808;28;41946;-89
2023/08/25 10:40:12;;;;;;;2.00;1.20;;;;;;;32.54;50.23;98398.09;5074976;28;43093;-77
2023/08/25 10:42:39;;;;;;;1.40;1.30;;;;;;;33.18;47.94;98386.53;5074514;28;40085;-87
2023/08/25 10:45:11;;;;;;;1.93;1.50;;;;;;;33.61;45.18;98384.09;5075016;28;40980;-84
2023/08/25 10:47:41;;;;;;;1.83;1.30;;;;;;;33.57;46.17;98369.22;5074714;28;42731;-84
2023/08/25 10:50:09;;;;;;;2.57;1.80;;;;;;;33.75;45.75;98369.75;5098747;28;41706;-86
2023/08/25 10:52:42;;;;;;;1.60;1.50;;;;;;;33.49;45.72;98365.00;5094220;28;39200;-86
2023/08/25 10:55:28;;;;;;;1.30;1.20;;;;;;;33.18;46.70;98348.09;5087435;28;40606;-83
2023/08/25 10:58:02;;;;;;;1.30;1.20;;;;;;;33.00;46.15;98342.09;5077629;28;41520;-81
2023/08/25 11:00:34;;;;;;;1.70;1.40;;;;;;;32.85;47.07;98355.56;5077429;28;41264;-83
2023/08/25 11:03:02;;;;;;;1.57;1.43;;;;;;;32.59;47.59;98348.81;5076529;28;39064;-83
2023/08/25 11:05:41;;;;;;;2.50;1.20;;;;;;;32.37;47.76;98352.31;5110046;28;43181;-84
2023/08/25 11:08:25;;;;;;;2.10;1.40;;;;;;;32.24;48.33;98363.59;5073656;28;41612;-82
2023/08/25 11:11:12;;;;;;;1.60;1.43;;;;;;;32.24;48.28;98393.75;5090031;28;40981;-86
2023/08/25 11:13:41;;;;;;;1.33;1.23;;;;;;;32.09;47.39;98404.38;5075222;28;41562;-87
2023/08/25 11:16:12;;;;;;;2.60;1.30;;;;;;;31.86;48.46;98402.56;5091509;28;41843;-85
2023/08/25 11:18:41;;;;;;;1.00;1.00;;;;;;;31.80;49.11;98411.75;5088337;28;41952;-81
2023/08/25 11:21:09;;;;;;;1.67;1.30;;;;;;;31.60;48.74;98412.16;5090648;28;42408;-81
2023/08/25 11:23:41;;;;;;;1.83;1.30;;;;;;;31.34;48.62;98420.88;5055454;28;39154;-80
2023/08/25 11:26:09;;;;;;;2.03;1.33;;;;;;;31.09;49.33;98421.13;5069972;28;42447;-79
2023/08/25 11:28:37;;;;;;;1.57;1.47;;;;;;;30.98;50.31;98420.03;5056402;28;43030;-80
2023/08/25 11:31:05;;;;;;;1.33;1.20;;;;;;;30.83;50.29;98422.41;5091134;28;43386;-80
2023/08/25 11:33:34;;;;;;;1.63;1.40;;;;;;;30.75;50.21;98425.50;5092010;28;40879;-79
2023/08/25 11:36:04;;;;;;;1.47;1.30;;;;;;;30.70;50.72;98431.66;5074228;28;42197;-80
2023/08/25 11:38:32;;;;;;;1.43;1.20;;;;;;;30.69;50.74;98426.41;5073801;28;43870;-79
2023/08/25 11:40:59;;;;;;;1.50;1.40;;;;;;;30.71;49.49;98441.53;5056674;28;41065;-79